DEJFK EDDH-EDXW
Flight info
| Callsign | DEJFK |
|---|---|
| Flight time | N/A |
| Altitude | |
| Route | EDDH/33 VFR DCT |
| Aircraft | C172 |
Departure
| Time | N/A |
|---|---|
| Airport | Hamburg Helmut Schmidt Airport (EDDH) |
Arrival
| Time | 2026-05-05 18:31 |
|---|---|
| Airport | Westerland Sylt Airport (EDXW) |
| Time | Latitude | Longitude | Altitude | Speed | Heading |
|---|---|---|---|---|---|
| 2026-05-05 18:19 | 54.69239 | 8.56203 | 2279 ft | 122 kts | 301° |
| 2026-05-05 18:19 | 54.69578 | 8.54853 | 2276 ft | 122 kts | 300° |
| 2026-05-05 18:19 | 54.69909 | 8.53505 | 2274 ft | 121 kts | 300° |
| 2026-05-05 18:19 | 54.70238 | 8.52161 | 2272 ft | 121 kts | 299° |
| 2026-05-05 18:20 | 54.70569 | 8.50809 | 2272 ft | 122 kts | 298° |
| 2026-05-05 18:20 | 54.70822 | 8.49411 | 2272 ft | 123 kts | 292° |
| 2026-05-05 18:20 | 54.71065 | 8.47974 | 2276 ft | 123 kts | 292° |
| 2026-05-05 18:20 | 54.71303 | 8.46561 | 2276 ft | 123 kts | 292° |
| 2026-05-05 18:21 | 54.71543 | 8.45122 | 2276 ft | 123 kts | 292° |
| 2026-05-05 18:21 | 54.71781 | 8.43703 | 2276 ft | 123 kts | 292° |
| 2026-05-05 18:21 | 54.72019 | 8.42276 | 2277 ft | 123 kts | 292° |
| 2026-05-05 18:21 | 54.72255 | 8.40851 | 2277 ft | 123 kts | 292° |
| 2026-05-05 18:22 | 54.72491 | 8.39434 | 2280 ft | 122 kts | 292° |
| 2026-05-05 18:22 | 54.72737 | 8.38008 | 2278 ft | 122 kts | 295° |
| 2026-05-05 18:22 | 54.73013 | 8.36625 | 2277 ft | 120 kts | 296° |
| 2026-05-05 18:22 | 54.73281 | 8.35290 | 2122 ft | 119 kts | 296° |
| 2026-05-05 18:23 | 54.73563 | 8.33951 | 1944 ft | 117 kts | 303° |
| 2026-05-05 18:23 | 54.73994 | 8.32764 | 1776 ft | 115 kts | 309° |
| 2026-05-05 18:23 | 54.74526 | 8.31781 | 1605 ft | 109 kts | 327° |
| 2026-05-05 18:23 | 54.75174 | 8.31169 | 1492 ft | 101 kts | 344° |
| 2026-05-05 18:24 | 54.75821 | 8.30850 | 1476 ft | 93 kts | 350° |
| 2026-05-05 18:24 | 54.76443 | 8.30657 | 1469 ft | 88 kts | 359° |
| 2026-05-05 18:24 | 54.77037 | 8.30648 | 1477 ft | 84 kts | 2° |
| 2026-05-05 18:24 | 54.77628 | 8.30661 | 1478 ft | 83 kts | 2° |
| 2026-05-05 18:25 | 54.78213 | 8.30678 | 1485 ft | 88 kts | 1° |
| 2026-05-05 18:25 | 54.78423 | 8.30685 | 1487 ft | 92 kts | 2° |
| 2026-05-05 18:25 | 54.79562 | 8.30737 | 1484 ft | 102 kts | 2° |
| 2026-05-05 18:25 | 54.80280 | 8.30773 | 1483 ft | 104 kts | 2° |
| 2026-05-05 18:26 | 54.81000 | 8.30810 | 1482 ft | 104 kts | 2° |
| 2026-05-05 18:26 | 54.81735 | 8.30851 | 1483 ft | 105 kts | 2° |
| 2026-05-05 18:26 | 54.82467 | 8.30896 | 1482 ft | 105 kts | 2° |
| 2026-05-05 18:26 | 54.83195 | 8.30941 | 1484 ft | 105 kts | 2° |
| 2026-05-05 18:27 | 54.83893 | 8.30988 | 1478 ft | 95 kts | 3° |
| 2026-05-05 18:27 | 54.84454 | 8.31403 | 1393 ft | 88 kts | 36° |
| 2026-05-05 18:27 | 54.84886 | 8.32167 | 1239 ft | 90 kts | 43° |
| 2026-05-05 18:27 | 54.85274 | 8.32994 | 1090 ft | 90 kts | 50° |
| 2026-05-05 18:28 | 54.86076 | 8.34496 | 757 ft | 85 kts | 33° |
| 2026-05-05 18:28 | 54.86559 | 8.35029 | 614 ft | 78 kts | 17° |
| 2026-05-05 18:28 | 54.87061 | 8.35373 | 456 ft | 81 kts | 22° |
| 2026-05-05 18:29 | 54.87534 | 8.35814 | 429 ft | 75 kts | 24° |
| 2026-05-05 18:29 | 54.87969 | 8.36250 | 509 ft | 62 kts | 14° |
| 2026-05-05 18:29 | 54.88385 | 8.36448 | 527 ft | 67 kts | 2° |
| 2026-05-05 18:29 | 54.88893 | 8.36430 | 424 ft | 76 kts | 354° |
| 2026-05-05 18:30 | 54.89404 | 8.36218 | 393 ft | 74 kts | 339° |
| 2026-05-05 18:30 | 54.89814 | 8.35888 | 314 ft | 51 kts | 335° |
| 2026-05-05 18:30 | 54.90109 | 8.35531 | 193 ft | 53 kts | 329° |
| 2026-05-05 18:30 | 54.90410 | 8.35167 | 104 ft | 53 kts | 328° |
| 2026-05-05 18:31 | 54.90705 | 8.34807 | 39 ft | 48 kts | 329° |
| 2026-05-05 18:31 | 54.90944 | 8.34526 | 28 ft | 31 kts | 333° |
| 2026-05-05 18:31 | 54.91131 | 8.34284 | 27 ft | 35 kts | 325° |
| 2026-05-05 18:31 | 54.91303 | 8.34042 | 27 ft | 22 kts | 280° |
| 2026-05-05 18:32 | 54.91247 | 8.33818 | 27 ft | 22 kts | 249° |
| 2026-05-05 18:32 | 54.91163 | 8.33573 | 24 ft | 27 kts | 244° |
| 2026-05-05 18:32 | 54.91071 | 8.33293 | 27 ft | 28 kts | 239° |
| 2026-05-05 18:32 | 54.91013 | 8.33017 | 26 ft | 18 kts | 292° |
| 2026-05-05 18:33 | 54.91076 | 8.32874 | 25 ft | 15 kts | 309° |
| 2026-05-05 18:33 | 54.91151 | 8.32722 | 24 ft | 17 kts | 316° |
| 2026-05-05 18:33 | 54.91230 | 8.32591 | 23 ft | 16 kts | 324° |
| 2026-05-05 18:33 | 54.91245 | 8.32527 | 23 ft | 0 kts | 121° |
| 2026-05-05 18:34 | 54.91244 | 8.32527 | 23 ft | 0 kts | 117° |